Terminal Aerodrome Forecast
Issued by NWS Sterling, VA

Current Version | Previous Version | Graphics & Text | Print | Product List | Glossary On
Versions: 1 2 3 4 5 6 7 8 9 10 11 12 13 14 15 16 17 18 19 20 21 22 23 24 25
693
FTUS41 KLWX 151519 AAA
TAFDCA
TAF AMD
KDCA 151519Z 1515/1612 01006KT P6SM FEW050 BKN250
     FM160000 01004KT P6SM BKN200=

USA.gov is the U.S. government's official web portal to all federal, state and local government web resources and services.